Time,TemperatureF,DewpointF,PressureIn,WindDirection,WindDirectionDegrees,WindSpeedMPH,WindSpeedGustMPH,Humidity,HourlyPrecipIn,Conditions,Clouds,dailyrainin,SoftwareType,DateUTC
2013-09-11 00:08:00,65.0,45.0,29.79,East,98,0.0,0.0,48,0.00,,,0.00,weatherlink.com 1.10,2013-09-11 07:08:00,
2013-09-11 00:23:00,66.5,45.0,29.80,East,101,0.0,0.0,46,0.00,,,0.00,weatherlink.com 1.10,2013-09-11 07:23:00,
2013-09-11 00:38:00,66.9,45.0,29.79,East,101,0.0,0.0,45,0.00,,,0.00,weatherlink.com 1.10,2013-09-11 07:38:00,
2013-09-11 00:53:00,67.5,45.0,29.79,East,101,0.0,0.0,44,0.00,,,0.00,weatherlink.com 1.10,2013-09-11 07:53:00,
2013-09-11 01:08:00,67.9,44.0,29.79,East,101,0.0,0.0,43,0.00,,,0.00,weatherlink.com 1.10,2013-09-11 08:08:00,
2013-09-11 01:23:00,66.9,44.0,29.79,ESE,113,0.0,0.0,44,0.00,,,0.00,weatherlink.com 1.10,2013-09-11 08:23:00,
2013-09-11 01:38:00,66.8,44.0,29.79,ESE,122,0.0,0.0,44,0.00,,,0.00,weatherlink.com 1.10,2013-09-11 08:38:00,
2013-09-11 01:53:00,66.5,44.0,29.80,ESE,123,0.0,0.0,44,0.00,,,0.00,weatherlink.com 1.10,2013-09-11 08:53:00,
2013-09-11 02:08:00,65.6,44.0,29.80,SE,124,0.0,0.0,45,0.00,,,0.00,weatherlink.com 1.10,2013-09-11 09:08:00,
2013-09-11 02:24:00,63.4,44.0,29.80,SSE,160,0.0,0.0,49,0.00,,,0.00,weatherlink.com 1.10,2013-09-11 09:24:00,
2013-09-11 02:38:00,62.8,44.0,29.79,ESE,121,0.0,0.0,51,0.00,,,0.00,weatherlink.com 1.10,2013-09-11 09:38:00,
2013-09-11 02:53:00,62.6,44.0,29.80,ESE,123,0.0,0.0,51,0.00,,,0.00,weatherlink.com 1.10,2013-09-11 09:53:00,
2013-09-11 03:08:00,61.8,44.0,29.80,SSE,155,0.0,0.0,52,0.00,,,0.00,weatherlink.com 1.10,2013-09-11 10:08:00,
2013-09-11 03:23:00,62.2,44.0,29.81,SE,124,0.0,0.0,52,0.00,,,0.00,weatherlink.com 1.10,2013-09-11 10:23:00,
2013-09-11 03:38:00,61.4,44.0,29.81,ESE,115,0.0,0.0,53,0.00,,,0.00,weatherlink.com 1.10,2013-09-11 10:38:00,
2013-09-11 03:53:00,61.1,44.0,29.81,ESE,114,0.0,0.0,53,0.00,,,0.00,weatherlink.com 1.10,2013-09-11 10:53:00,
2013-09-11 04:08:00,61.4,43.0,29.81,ESE,113,0.0,0.0,52,0.00,,,0.00,weatherlink.com 1.10,2013-09-11 11:08:00,
2013-09-11 04:23:00,61.3,44.0,29.82,ESE,113,0.0,0.0,53,0.00,,,0.00,weatherlink.com 1.10,2013-09-11 11:23:00,
2013-09-11 04:38:00,61.4,44.0,29.82,East,96,0.0,0.0,53,0.00,,,0.00,weatherlink.com 1.10,2013-09-11 11:38:00,
2013-09-11 04:53:00,61.7,44.0,29.82,ESE,108,0.0,0.0,53,0.00,,,0.00,weatherlink.com 1.10,2013-09-11 11:53:00,
2013-09-11 05:08:00,62.4,44.0,29.82,ESE,110,0.0,0.0,52,0.00,,,0.00,weatherlink.com 1.10,2013-09-11 12:08:00,
2013-09-11 05:23:00,61.8,44.0,29.82,SE,127,0.0,0.0,52,0.00,,,0.00,weatherlink.com 1.10,2013-09-11 12:23:00,
2013-09-11 05:38:00,60.6,44.0,29.82,SE,137,0.0,2.0,54,0.00,,,0.00,weatherlink.com 1.10,2013-09-11 12:38:00,
2013-09-11 05:53:00,60.2,44.0,29.83,SSE,159,0.0,0.0,55,0.00,,,0.00,weatherlink.com 1.10,2013-09-11 12:53:00,
2013-09-11 06:08:00,59.7,43.0,29.83,ESE,110,0.0,0.0,55,0.00,,,0.00,weatherlink.com 1.10,2013-09-11 13:08:00,
2013-09-11 06:23:00,59.3,43.0,29.83,ESE,114,0.0,0.0,56,0.00,,,0.00,weatherlink.com 1.10,2013-09-11 13:23:00,
2013-09-11 06:38:00,59.7,44.0,29.84,ESE,116,0.0,0.0,56,0.00,,,0.00,weatherlink.com 1.10,2013-09-11 13:38:00,
2013-09-11 06:53:00,60.3,44.0,29.84,ESE,113,0.0,0.0,55,0.00,,,0.00,weatherlink.com 1.10,2013-09-11 13:53:00,
2013-09-11 07:08:00,61.3,44.0,29.84,ESE,104,0.0,0.0,54,0.00,,,0.00,weatherlink.com 1.10,2013-09-11 14:08:00,
2013-09-11 07:23:00,61.6,44.0,29.85,ESE,113,0.0,0.0,53,0.00,,,0.00,weatherlink.com 1.10,2013-09-11 14:23:00,
2013-09-11 07:39:00,62.4,44.0,29.85,ESE,111,0.0,0.0,52,0.00,,,0.00,weatherlink.com 1.10,2013-09-11 14:39:00,
2013-09-11 07:54:00,63.0,45.0,29.85,ESE,111,0.0,0.0,52,0.00,,,0.00,weatherlink.com 1.10,2013-09-11 14:54:00,
2013-09-11 08:09:00,62.7,45.0,29.85,ESE,112,0.0,0.0,53,0.00,,,0.00,weatherlink.com 1.10,2013-09-11 15:09:00,
2013-09-11 08:24:00,63.9,45.0,29.85,SE,146,0.0,0.0,51,0.00,,,0.00,weatherlink.com 1.10,2013-09-11 15:24:00,
2013-09-11 08:39:00,66.5,46.0,29.85,SSE,159,0.0,0.0,48,0.00,,,0.00,weatherlink.com 1.10,2013-09-11 15:39:00,
2013-09-11 08:54:00,69.1,46.0,29.85,SW,214,0.0,0.0,44,0.00,,,0.00,weatherlink.com 1.10,2013-09-11 15:54:00,
2013-09-11 09:09:00,69.6,46.0,29.86,SW,214,0.0,0.0,43,0.00,,,0.00,weatherlink.com 1.10,2013-09-11 16:09:00,
2013-09-11 09:24:00,69.8,46.0,29.86,NW,319,0.0,0.0,42,0.00,,,0.00,weatherlink.com 1.10,2013-09-11 16:24:00,
2013-09-11 09:39:00,69.6,46.0,29.86,North,8,0.0,0.0,43,0.00,,,0.00,weatherlink.com 1.10,2013-09-11 16:39:00,
2013-09-11 09:54:00,70.1,46.0,29.86,NW,305,0.0,0.0,43,0.00,,,0.00,weatherlink.com 1.10,2013-09-11 16:54:00,
2013-09-11 10:09:00,70.7,46.0,29.86,NW,305,0.0,2.0,42,0.00,,,0.00,weatherlink.com 1.10,2013-09-11 17:09:00,
2013-09-11 10:24:00,71.3,46.0,29.86,NW,320,0.0,0.0,41,0.00,,,0.00,weatherlink.com 1.10,2013-09-11 17:24:00,
2013-09-11 10:39:00,71.8,47.0,29.86,WNW,291,0.0,1.0,42,0.00,,,0.00,weatherlink.com 1.10,2013-09-11 17:39:00,
2013-09-11 10:54:00,72.8,47.0,29.86,WNW,283,0.0,2.0,40,0.00,,,0.00,weatherlink.com 1.10,2013-09-11 17:54:00,
2013-09-11 11:09:00,74.1,48.0,29.85,SSW,193,0.0,0.0,39,0.00,,,0.00,weatherlink.com 1.10,2013-09-11 18:09:00,
2013-09-11 11:24:00,74.8,47.0,29.85,WNW,301,0.0,2.0,38,0.00,,,0.00,weatherlink.com 1.10,2013-09-11 18:24:00,
2013-09-11 11:39:00,75.9,48.0,29.85,WNW,301,0.0,5.0,37,0.00,,,0.00,weatherlink.com 1.10,2013-09-11 18:39:00,
2013-09-11 11:54:00,76.7,48.0,29.85,West,281,2.0,8.0,37,0.00,,,0.00,weatherlink.com 1.10,2013-09-11 18:54:00,
2013-09-11 12:09:00,77.6,49.0,29.84,WNW,298,0.0,6.0,36,0.00,,,0.00,weatherlink.com 1.10,2013-09-11 19:09:00,
2013-09-11 12:24:00,78.4,49.0,29.84,WNW,302,0.0,6.0,35,0.00,,,0.00,weatherlink.com 1.10,2013-09-11 19:24:00,
2013-09-11 12:39:00,78.9,49.0,29.84,West,277,0.0,7.0,35,0.00,,,0.00,weatherlink.com 1.10,2013-09-11 19:39:00,
2013-09-11 12:54:00,79.7,49.0,29.83,West,281,3.0,8.0,34,0.00,,,0.00,weatherlink.com 1.10,2013-09-11 19:54:00,
2013-09-11 13:09:00,80.2,49.0,29.83,WNW,296,10.0,10.0,34,0.00,,,0.00,weatherlink.com 1.10,2013-09-11 20:09:00,
2013-09-11 13:24:00,80.6,50.0,29.82,NW,318,3.0,10.0,34,0.00,,,0.00,weatherlink.com 1.10,2013-09-11 20:24:00,
2013-09-11 13:54:00,81.7,49.0,29.81,NNW,346,7.0,7.0,32,0.00,,,0.00,weatherlink.com 1.10,2013-09-11 20:54:00,
2013-09-11 14:09:00,82.2,49.0,29.81,WNW,288,0.0,8.0,31,0.00,,,0.00,weatherlink.com 1.10,2013-09-11 21:09:00,
2013-09-11 14:24:00,82.4,48.0,29.81,NNW,345,5.0,8.0,30,0.00,,,0.00,weatherlink.com 1.10,2013-09-11 21:24:00,
2013-09-11 14:40:00,83.3,48.0,29.80,NNW,338,1.0,12.0,29,0.00,,,0.00,weatherlink.com 1.10,2013-09-11 21:40:00,
2013-09-11 14:55:00,83.8,46.0,29.80,NNE,31,1.0,10.0,27,0.00,,,0.00,weatherlink.com 1.10,2013-09-11 21:55:00,
2013-09-11 15:10:00,84.3,47.0,29.80,WNW,298,1.0,12.0,27,0.00,,,0.00,weatherlink.com 1.10,2013-09-11 22:10:00,
2013-09-11 15:25:00,84.2,46.0,29.79,North,351,7.0,15.0,26,0.00,,,0.00,weatherlink.com 1.10,2013-09-11 22:25:00,
2013-09-11 15:40:00,84.9,45.0,29.79,NNW,338,1.0,12.0,25,0.00,,,0.00,weatherlink.com 1.10,2013-09-11 22:40:00,
2013-09-11 15:55:00,85.1,46.0,29.79,NW,321,4.0,9.0,25,0.00,,,0.00,weatherlink.com 1.10,2013-09-11 22:55:00,
2013-09-11 16:10:00,85.3,46.0,29.78,NNW,342,1.0,12.0,25,0.00,,,0.00,weatherlink.com 1.10,2013-09-11 23:10:00,
2013-09-11 16:25:00,85.3,45.0,29.78,North,352,3.0,10.0,24,0.00,,,0.00,weatherlink.com 1.10,2013-09-11 23:25:00,
2013-09-11 16:40:00,85.7,46.0,29.78,NNW,340,4.0,10.0,25,0.00,,,0.00,weatherlink.com 1.10,2013-09-11 23:40:00,
2013-09-11 16:55:00,85.3,46.0,29.78,North,355,1.0,10.0,25,0.00,,,0.00,weatherlink.com 1.10,2013-09-11 23:55:00,
2013-09-11 17:10:00,85.5,45.0,29.78,NW,316,0.0,11.0,24,0.00,,,0.00,weatherlink.com 1.10,2013-09-12 00:10:00,
2013-09-11 17:25:00,85.0,44.0,29.78,NNW,334,2.0,10.0,24,0.00,,,0.00,weatherlink.com 1.10,2013-09-12 00:25:00,
2013-09-11 17:40:00,84.6,43.0,29.78,WNW,291,2.0,11.0,23,0.00,,,0.00,weatherlink.com 1.10,2013-09-12 00:40:00,
2013-09-11 17:55:00,84.2,44.0,29.78,West,281,0.0,12.0,24,0.00,,,0.00,weatherlink.com 1.10,2013-09-12 00:55:00,
2013-09-11 18:10:00,83.4,43.0,29.78,NNE,23,7.0,10.0,24,0.00,,,0.00,weatherlink.com 1.10,2013-09-12 01:10:00,
2013-09-11 18:25:00,82.7,43.0,29.77,NNW,343,3.0,14.0,25,0.00,,,0.00,weatherlink.com 1.10,2013-09-12 01:25:00,
2013-09-11 18:40:00,82.1,43.0,29.77,NW,312,2.0,11.0,25,0.00,,,0.00,weatherlink.com 1.10,2013-09-12 01:40:00,
2013-09-11 18:55:00,81.4,43.0,29.77,NE,49,0.0,5.0,26,0.00,,,0.00,weatherlink.com 1.10,2013-09-12 01:55:00,
2013-09-11 19:10:00,80.2,42.0,29.77,NW,326,1.0,4.0,26,0.00,,,0.00,weatherlink.com 1.10,2013-09-12 02:10:00,
2013-09-11 19:25:00,77.8,42.0,29.77,NW,318,0.0,4.0,28,0.00,,,0.00,weatherlink.com 1.10,2013-09-12 02:25:00,
2013-09-11 19:40:00,76.1,42.0,29.78,East,91,0.0,5.0,30,0.00,,,0.00,weatherlink.com 1.10,2013-09-12 02:40:00,
2013-09-11 19:55:00,75.3,43.0,29.78,WNW,297,0.0,8.0,31,0.00,,,0.00,weatherlink.com 1.10,2013-09-12 02:55:00,
2013-09-11 20:10:00,74.7,44.0,29.78,ENE,71,0.0,4.0,33,0.00,,,0.00,weatherlink.com 1.10,2013-09-12 03:10:00,
2013-09-11 20:25:00,74.3,44.0,29.79,SE,124,0.0,5.0,34,0.00,,,0.00,weatherlink.com 1.10,2013-09-12 03:25:00,
2013-09-11 20:40:00,74.0,44.0,29.79,NW,308,0.0,4.0,34,0.00,,,0.00,weatherlink.com 1.10,2013-09-12 03:40:00,
2013-09-11 20:55:00,73.1,44.0,29.80,NW,304,0.0,0.0,35,0.00,,,0.00,weatherlink.com 1.10,2013-09-12 03:55:00,
2013-09-11 21:10:00,72.4,44.0,29.80,NW,314,0.0,0.0,36,0.00,,,0.00,weatherlink.com 1.10,2013-09-12 04:10:00,
2013-09-11 21:25:00,71.2,43.0,29.80,NW,312,0.0,0.0,37,0.00,,,0.00,weatherlink.com 1.10,2013-09-12 04:25:00,
2013-09-11 21:40:00,69.5,43.0,29.81,ENE,69,0.0,0.0,39,0.00,,,0.00,weatherlink.com 1.10,2013-09-12 04:40:00,
2013-09-11 21:55:00,68.9,43.0,29.81,WNW,296,0.0,0.0,40,0.00,,,0.00,weatherlink.com 1.10,2013-09-12 04:55:00,
2013-09-11 22:10:00,68.3,44.0,29.81,NW,319,0.0,0.0,41,0.00,,,0.00,weatherlink.com 1.10,2013-09-12 05:10:00,
2013-09-11 22:25:00,67.8,44.0,29.82,North,349,0.0,0.0,42,0.00,,,0.00,weatherlink.com 1.10,2013-09-12 05:25:00,
2013-09-11 22:40:00,67.7,44.0,29.82,ENE,77,0.0,0.0,42,0.00,,,0.00,weatherlink.com 1.10,2013-09-12 05:40:00,
2013-09-11 22:55:00,68.7,44.0,29.82,ESE,108,0.0,0.0,41,0.00,,,0.00,weatherlink.com 1.10,2013-09-12 05:55:00,
2013-09-11 23:10:00,69.6,43.0,29.82,ESE,108,0.0,0.0,39,0.00,,,0.00,weatherlink.com 1.10,2013-09-12 06:10:00,
2013-09-11 23:25:00,69.3,43.0,29.82,ESE,108,0.0,0.0,39,0.00,,,0.00,weatherlink.com 1.10,2013-09-12 06:25:00,
2013-09-11 23:40:00,68.9,43.0,29.83,ESE,108,0.0,0.0,40,0.00,,,0.00,weatherlink.com 1.10,2013-09-12 06:40:00,
2013-09-11 23:55:00,67.8,43.0,29.83,ESE,121,0.0,0.0,41,0.00,,,0.00,weatherlink.com 1.10,2013-09-12 06:55:00,